sensor_id;sensor_type;location;lat;lon;timestamp;pressure;altitude;pressure_sealevel;temperature;humidity
15272;BME280;7737;51.578;7.268;2022-09-09T00:01:25;100293.88;;;16.56;100.00
15272;BME280;7737;51.578;7.268;2022-09-09T00:03:59;100302.78;;;16.67;100.00
15272;BME280;7737;51.578;7.268;2022-09-09T00:06:28;100303.03;;;16.64;100.00
15272;BME280;7737;51.578;7.268;2022-09-09T00:09:01;100302.94;;;16.55;100.00
15272;BME280;7737;51.578;7.268;2022-09-09T00:11:38;100293.63;;;16.59;100.00
15272;BME280;7737;51.578;7.268;2022-09-09T00:14:12;100286.84;;;16.55;100.00
15272;BME280;7737;51.578;7.268;2022-09-09T00:16:44;100291.34;;;16.54;100.00
15272;BME280;7737;51.578;7.268;2022-09-09T00:19:20;100292.16;;;16.66;100.00
15272;BME280;7737;51.578;7.268;2022-09-09T00:21:55;100294.50;;;16.59;100.00
15272;BME280;7737;51.578;7.268;2022-09-09T00:24:26;100290.47;;;16.65;100.00
15272;BME280;7737;51.578;7.268;2022-09-09T00:26:59;100292.91;;;16.68;100.00
15272;BME280;7737;51.578;7.268;2022-09-09T00:29:33;100301.94;;;16.56;100.00
15272;BME280;7737;51.578;7.268;2022-09-09T00:32:11;100293.63;;;16.59;100.00
15272;BME280;7737;51.578;7.268;2022-09-09T00:34:46;100296.91;;;16.51;100.00
15272;BME280;7737;51.578;7.268;2022-09-09T00:37:13;100287.03;;;16.52;100.00
15272;BME280;7737;51.578;7.268;2022-09-09T00:39:42;100285.97;;;16.54;100.00
15272;BME280;7737;51.578;7.268;2022-09-09T00:42:14;100286.44;;;16.48;100.00
15272;BME280;7737;51.578;7.268;2022-09-09T00:44:51;100291.91;;;16.58;100.00
15272;BME280;7737;51.578;7.268;2022-09-09T00:47:32;100299.50;;;16.53;100.00
15272;BME280;7737;51.578;7.268;2022-09-09T00:50:21;100290.81;;;16.49;100.00
15272;BME280;7737;51.578;7.268;2022-09-09T00:53:00;100292.66;;;16.49;100.00
15272;BME280;7737;51.578;7.268;2022-09-09T00:55:35;100297.56;;;16.55;100.00
15272;BME280;7737;51.578;7.268;2022-09-09T00:58:07;100291.34;;;16.54;100.00
15272;BME280;7737;51.578;7.268;2022-09-09T01:00:41;100294.13;;;16.53;100.00
15272;BME280;7737;51.578;7.268;2022-09-09T01:03:18;100288.50;;;16.44;100.00
15272;BME280;7737;51.578;7.268;2022-09-09T01:05:54;100293.63;;;16.48;100.00
15272;BME280;7737;51.578;7.268;2022-09-09T01:08:53;100294.38;;;16.27;100.00
15272;BME280;7737;51.578;7.268;2022-09-09T01:11:23;100292.66;;;16.15;100.00
15272;BME280;7737;51.578;7.268;2022-09-09T01:13:56;100292.16;;;16.32;100.00
15272;BME280;7737;51.578;7.268;2022-09-09T01:16:27;100288.38;;;16.35;100.00
15272;BME280;7737;51.578;7.268;2022-09-09T01:18:57;100285.59;;;16.25;100.00
15272;BME280;7737;51.578;7.268;2022-09-09T01:21:35;100283.50;;;16.18;100.00
15272;BME280;7737;51.578;7.268;2022-09-09T01:24:25;100287.53;;;16.23;100.00
15272;BME280;7737;51.578;7.268;2022-09-09T01:26:56;100284.38;;;16.29;100.00
15272;BME280;7737;51.578;7.268;2022-09-09T01:29:24;100283.03;;;16.24;100.00
15272;BME280;7737;51.578;7.268;2022-09-09T01:31:53;100282.88;;;16.36;100.00
15272;BME280;7737;51.578;7.268;2022-09-09T01:34:22;100288.28;;;16.25;100.00
15272;BME280;7737;51.578;7.268;2022-09-09T01:36:53;100285.22;;;16.30;100.00
15272;BME280;7737;51.578;7.268;2022-09-09T01:39:22;100281.44;;;16.32;100.00
15272;BME280;7737;51.578;7.268;2022-09-09T01:41:49;100280.34;;;16.35;100.00
15272;BME280;7737;51.578;7.268;2022-09-09T01:44:17;100280.47;;;16.33;100.00
15272;BME280;7737;51.578;7.268;2022-09-09T01:46:43;100283.03;;;16.24;100.00
15272;BME280;7737;51.578;7.268;2022-09-09T01:49:10;100285.84;;;16.22;100.00
15272;BME280;7737;51.578;7.268;2022-09-09T01:51:38;100293.88;;;16.22;100.00
15272;BME280;7737;51.578;7.268;2022-09-09T01:54:07;100286.09;;;16.19;100.00
15272;BME280;7737;51.578;7.268;2022-09-09T01:56:40;100282.66;;;16.06;100.00
15272;BME280;7737;51.578;7.268;2022-09-09T01:59:21;100275.34;;;16.19;100.00
15272;BME280;7737;51.578;7.268;2022-09-09T02:01:59;100285.34;;;16.17;100.00
15272;BME280;7737;51.578;7.268;2022-09-09T02:04:36;100284.38;;;16.29;100.00
15272;BME280;7737;51.578;7.268;2022-09-09T02:07:12;100288.88;;;16.18;100.00
15272;BME280;7737;51.578;7.268;2022-09-09T02:09:42;100279.63;;;16.22;100.00
15272;BME280;7737;51.578;7.268;2022-09-09T02:12:14;100287.78;;;16.20;100.00
15272;BME280;7737;51.578;7.268;2022-09-09T02:14:48;100288.88;;;16.29;100.00
15272;BME280;7737;51.578;7.268;2022-09-09T02:17:18;100290.22;;;16.34;100.00
15272;BME280;7737;51.578;7.268;2022-09-09T02:19:50;100285.47;;;16.38;100.00
15272;BME280;7737;51.578;7.268;2022-09-09T02:22:22;100290.59;;;16.41;100.00
15272;BME280;7737;51.578;7.268;2022-09-09T02:24:51;100285.31;;;16.39;100.00
15272;BME280;7737;51.578;7.268;2022-09-09T02:27:22;100296.78;;;16.41;100.00
15272;BME280;7737;51.578;7.268;2022-09-09T02:29:51;100294.84;;;16.43;100.00
15272;BME280;7737;51.578;7.268;2022-09-09T02:32:22;100291.94;;;16.47;100.00
15272;BME280;7737;51.578;7.268;2022-09-09T02:34:53;100284.84;;;16.45;100.00
15272;BME280;7737;51.578;7.268;2022-09-09T02:37:24;100289.97;;;16.49;100.00
15272;BME280;7737;51.578;7.268;2022-09-09T02:39:53;100284.84;;;16.45;100.00
15272;BME280;7737;51.578;7.268;2022-09-09T02:42:20;100288.25;;;16.48;100.00
15272;BME280;7737;51.578;7.268;2022-09-09T02:44:47;100293.50;;;16.49;100.00
15272;BME280;7737;51.578;7.268;2022-09-09T02:47:25;100295.09;;;16.40;100.00
15272;BME280;7737;51.578;7.268;2022-09-09T02:50:03;100286.56;;;16.47;100.00
15272;BME280;7737;51.578;7.268;2022-09-09T02:52:38;100297.28;;;16.35;100.00
15272;BME280;7737;51.578;7.268;2022-09-09T02:55:14;100292.16;;;16.32;100.00
15272;BME280;7737;51.578;7.268;2022-09-09T02:57:43;100290.47;;;16.31;100.00
15272;BME280;7737;51.578;7.268;2022-09-09T03:00:13;100292.53;;;16.39;100.00
15272;BME280;7737;51.578;7.268;2022-09-09T03:02:41;100293.38;;;16.51;100.00
15272;BME280;7737;51.578;7.268;2022-09-09T03:05:08;100287.88;;;16.52;100.00
15272;BME280;7737;51.578;7.268;2022-09-09T03:07:34;100286.84;;;16.55;100.00
15272;BME280;7737;51.578;7.268;2022-09-09T03:10:01;100278.22;;;16.50;100.00
15272;BME280;7737;51.578;7.268;2022-09-09T03:12:28;100279.84;;;16.41;100.00
15272;BME280;7737;51.578;7.268;2022-09-09T03:14:54;100285.56;;;16.48;100.00
15272;BME280;7737;51.578;7.268;2022-09-09T03:17:21;100278.78;;;16.55;100.00
15272;BME280;7737;51.578;7.268;2022-09-09T03:19:49;100277.13;;;16.52;100.00
15272;BME280;7737;51.578;7.268;2022-09-09T03:22:17;100274.25;;;16.55;100.00
15272;BME280;7737;51.578;7.268;2022-09-09T03:24:44;100272.16;;;16.48;100.00
15272;BME280;7737;51.578;7.268;2022-09-09T03:27:11;100269.47;;;16.48;100.00
15272;BME280;7737;51.578;7.268;2022-09-09T03:29:39;100264.59;;;16.64;100.00
15272;BME280;7737;51.578;7.268;2022-09-09T03:32:06;100265.84;;;16.60;100.00
15272;BME280;7737;51.578;7.268;2022-09-09T03:34:35;100261.69;;;16.56;100.00
15272;BME280;7737;51.578;7.268;2022-09-09T03:37:06;100263.16;;;16.60;100.00
15272;BME280;7737;51.578;7.268;2022-09-09T03:39:33;100264.38;;;16.56;100.00
15272;BME280;7737;51.578;7.268;2022-09-09T03:41:59;100257.31;;;16.55;100.00
15272;BME280;7737;51.578;7.268;2022-09-09T03:44:29;100252.66;;;16.57;100.00
15272;BME280;7737;51.578;7.268;2022-09-09T03:46:56;100257.03;;;16.58;100.00
15272;BME280;7737;51.578;7.268;2022-09-09T03:49:25;100260.22;;;16.52;100.00
15272;BME280;7737;51.578;7.268;2022-09-09T03:51:54;100261.03;;;16.52;100.00
15272;BME280;7737;51.578;7.268;2022-09-09T03:54:22;100268.25;;;16.52;100.00
15272;BME280;7737;51.578;7.268;2022-09-09T03:56:49;100267.50;;;16.50;100.00
15272;BME280;7737;51.578;7.268;2022-09-09T03:59:15;100261.06;;;16.41;100.00
15272;BME280;7737;51.578;7.268;2022-09-09T04:01:42;100266.91;;;16.46;100.00
15272;BME280;7737;51.578;7.268;2022-09-09T04:04:09;100263.16;;;16.37;100.00
15272;BME280;7737;51.578;7.268;2022-09-09T04:06:37;100264.34;;;16.44;100.00
15272;BME280;7737;51.578;7.268;2022-09-09T04:09:03;100270.09;;;16.29;100.00
15272;BME280;7737;51.578;7.268;2022-09-09T04:11:31;100272.44;;;16.33;100.00
15272;BME280;7737;51.578;7.268;2022-09-09T04:13:58;100269.00;;;16.31;100.00
15272;BME280;7737;51.578;7.268;2022-09-09T04:16:25;100266.31;;;16.20;100.00
15272;BME280;7737;51.578;7.268;2022-09-09T04:18:51;100278.66;;;16.12;100.00
15272;BME280;7737;51.578;7.268;2022-09-09T04:21:18;100274.16;;;16.12;100.00
15272;BME280;7737;51.578;7.268;2022-09-09T04:23:45;100275.84;;;16.24;100.00
15272;BME280;7737;51.578;7.268;2022-09-09T04:26:11;100273.41;;;16.21;100.00
15272;BME280;7737;51.578;7.268;2022-09-09T04:28:39;100281.69;;;16.29;100.00
15272;BME280;7737;51.578;7.268;2022-09-09T04:31:08;100280.47;;;16.33;100.00
15272;BME280;7737;51.578;7.268;2022-09-09T04:33:36;100274.97;;;16.35;100.00
15272;BME280;7737;51.578;7.268;2022-09-09T04:36:04;100273.78;;;16.28;100.00
15272;BME280;7737;51.578;7.268;2022-09-09T04:38:31;100283.50;;;16.29;100.00
15272;BME280;7737;51.578;7.268;2022-09-09T04:40:58;100278.75;;;16.32;100.00
15272;BME280;7737;51.578;7.268;2022-09-09T04:43:24;100288.28;;;16.14;100.00
15272;BME280;7737;51.578;7.268;2022-09-09T04:45:53;100284.75;;;16.25;100.00
15272;BME280;7737;51.578;7.268;2022-09-09T04:48:21;100279.63;;;16.33;100.00
15272;BME280;7737;51.578;7.268;2022-09-09T04:50:57;100284.84;;;16.23;100.00
15272;BME280;7737;51.578;7.268;2022-09-09T04:53:24;100279.72;;;16.20;100.00
15272;BME280;7737;51.578;7.268;2022-09-09T04:55:52;100290.59;;;16.19;100.00
15272;BME280;7737;51.578;7.268;2022-09-09T04:58:18;100284.50;;;16.06;100.00
15272;BME280;7737;51.578;7.268;2022-09-09T05:00:46;100290.00;;;16.04;100.00
15272;BME280;7737;51.578;7.268;2022-09-09T05:03:14;100284.38;;;15.96;100.00
15272;BME280;7737;51.578;7.268;2022-09-09T05:05:41;100284.88;;;16.01;100.00
15272;BME280;7737;51.578;7.268;2022-09-09T05:08:08;100294.59;;;16.02;100.00
15272;BME280;7737;51.578;7.268;2022-09-09T05:10:37;100290.94;;;16.03;100.00
15272;BME280;7737;51.578;7.268;2022-09-09T05:13:04;100289.50;;;16.21;100.00
15272;BME280;7737;51.578;7.268;2022-09-09T05:15:31;100293.13;;;16.20;100.00
15272;BME280;7737;51.578;7.268;2022-09-09T05:17:58;100289.25;;;16.24;100.00
15272;BME280;7737;51.578;7.268;2022-09-09T05:20:27;100298.03;;;16.26;100.00
15272;BME280;7737;51.578;7.268;2022-09-09T05:22:54;100290.97;;;16.25;100.00
15272;BME280;7737;51.578;7.268;2022-09-09T05:25:21;100288.63;;;16.32;100.00
15272;BME280;7737;51.578;7.268;2022-09-09T05:27:49;100290.47;;;16.31;100.00
15272;BME280;7737;51.578;7.268;2022-09-09T05:30:16;100285.34;;;16.28;100.00
15272;BME280;7737;51.578;7.268;2022-09-09T05:32:44;100285.56;;;16.36;100.00
15272;BME280;7737;51.578;7.268;2022-09-09T05:35:11;100288.53;;;16.33;100.00
15272;BME280;7737;51.578;7.268;2022-09-09T05:37:40;100287.78;;;16.31;100.00
15272;BME280;7737;51.578;7.268;2022-09-09T05:40:07;100286.44;;;16.37;100.00
15272;BME280;7737;51.578;7.268;2022-09-09T05:42:34;100292.41;;;16.52;100.00
15272;BME280;7737;51.578;7.268;2022-09-09T05:45:01;100282.88;;;16.48;100.00
15272;BME280;7737;51.578;7.268;2022-09-09T05:47:27;100286.56;;;16.47;100.00
15272;BME280;7737;51.578;7.268;2022-09-09T05:49:54;100280.81;;;16.51;100.00
15272;BME280;7737;51.578;7.268;2022-09-09T05:52:21;100288.28;;;16.59;100.00
15272;BME280;7737;51.578;7.268;2022-09-09T05:54:49;100284.88;;;16.57;100.00
15272;BME280;7737;51.578;7.268;2022-09-09T05:57:15;100281.19;;;16.58;100.00
15272;BME280;7737;51.578;7.268;2022-09-09T05:59:42;100273.13;;;16.69;100.00
15272;BME280;7737;51.578;7.268;2022-09-09T06:02:08;100277.50;;;16.81;100.00
15272;BME280;7737;51.578;7.268;2022-09-09T06:04:35;100270.03;;;16.84;100.00
15272;BME280;7737;51.578;7.268;2022-09-09T06:07:02;100278.94;;;16.85;100.00
15272;BME280;7737;51.578;7.268;2022-09-09T06:09:28;100279.41;;;16.90;100.00
15272;BME280;7737;51.578;7.268;2022-09-09T06:11:57;100281.50;;;16.86;100.00
15272;BME280;7737;51.578;7.268;2022-09-09T06:14:24;100285.78;;;16.89;100.00
15272;BME280;7737;51.578;7.268;2022-09-09T06:16:52;100273.66;;;16.94;100.00
15272;BME280;7737;51.578;7.268;2022-09-09T06:19:18;100281.34;;;16.99;100.00
15272;BME280;7737;51.578;7.268;2022-09-09T06:21:45;100281.59;;;16.96;100.00
15272;BME280;7737;51.578;7.268;2022-09-09T06:24:13;100277.94;;;16.97;100.00
15272;BME280;7737;51.578;7.268;2022-09-09T06:26:42;100282.28;;;17.09;100.00
15272;BME280;7737;51.578;7.268;2022-09-09T06:29:12;100279.84;;;17.06;100.00
15272;BME280;7737;51.578;7.268;2022-09-09T06:31:38;100275.94;;;17.10;100.00
15272;BME280;7737;51.578;7.268;2022-09-09T06:34:07;100276.00;;;17.20;100.00
15272;BME280;7737;51.578;7.268;2022-09-09T06:36:36;100284.72;;;17.12;100.00
15272;BME280;7737;51.578;7.268;2022-09-09T06:39:04;100280.47;;;17.30;100.00
15272;BME280;7737;51.578;7.268;2022-09-09T06:41:32;100279.88;;;17.27;100.00
15272;BME280;7737;51.578;7.268;2022-09-09T06:43:59;100278.44;;;17.23;100.00
15272;BME280;7737;51.578;7.268;2022-09-09T06:46:28;100278.97;;;17.37;100.00
15272;BME280;7737;51.578;7.268;2022-09-09T06:48:57;100278.31;;;17.24;100.00
15272;BME280;7737;51.578;7.268;2022-09-09T06:51:26;100269.13;;;17.27;100.00
15272;BME280;7737;51.578;7.268;2022-09-09T06:53:54;100269.94;;;17.38;100.00
15272;BME280;7737;51.578;7.268;2022-09-09T06:56:23;100276.88;;;17.41;100.00
15272;BME280;7737;51.578;7.268;2022-09-09T06:58:51;100279.72;;;17.39;100.00
15272;BME280;7737;51.578;7.268;2022-09-09T07:01:21;100282.88;;;17.44;100.00
15272;BME280;7737;51.578;7.268;2022-09-09T07:03:50;100288.44;;;17.52;100.00
15272;BME280;7737;51.578;7.268;2022-09-09T07:06:19;100284.91;;;17.52;100.00
15272;BME280;7737;51.578;7.268;2022-09-09T07:08:50;100280.22;;;17.65;100.00
15272;BME280;7737;51.578;7.268;2022-09-09T07:11:18;100280.50;;;17.72;100.00
15272;BME280;7737;51.578;7.268;2022-09-09T07:13:45;100282.53;;;17.79;100.00
15272;BME280;7737;51.578;7.268;2022-09-09T07:16:13;100285.56;;;17.86;100.00
15272;BME280;7737;51.578;7.268;2022-09-09T07:18:40;100290.78;;;18.08;100.00
15272;BME280;7737;51.578;7.268;2022-09-09T07:21:09;100291.13;;;17.94;100.00
15272;BME280;7737;51.578;7.268;2022-09-09T07:23:37;100293.88;;;18.03;100.00
15272;BME280;7737;51.578;7.268;2022-09-09T07:26:08;100287.38;;;18.06;100.00
15272;BME280;7737;51.578;7.268;2022-09-09T07:28:34;100288.09;;;18.08;100.00
15272;BME280;7737;51.578;7.268;2022-09-09T07:31:02;100285.97;;;18.11;100.00
15272;BME280;7737;51.578;7.268;2022-09-09T07:33:30;100293.84;;;18.24;100.00
15272;BME280;7737;51.578;7.268;2022-09-09T07:36:04;100296.91;;;18.19;100.00
15272;BME280;7737;51.578;7.268;2022-09-09T07:38:37;100294.47;;;18.37;100.00
15272;BME280;7737;51.578;7.268;2022-09-09T07:41:05;100283.88;;;18.45;100.00
15272;BME280;7737;51.578;7.268;2022-09-09T07:43:34;100286.38;;;18.67;100.00
15272;BME280;7737;51.578;7.268;2022-09-09T07:46:00;100281.69;;;18.69;100.00
15272;BME280;7737;51.578;7.268;2022-09-09T07:48:27;100275.31;;;18.80;100.00
15272;BME280;7737;51.578;7.268;2022-09-09T07:51:03;100273.06;;;18.85;100.00
15272;BME280;7737;51.578;7.268;2022-09-09T07:53:31;100285.16;;;19.00;100.00
15272;BME280;7737;51.578;7.268;2022-09-09T07:56:04;100279.91;;;18.99;100.00
15272;BME280;7737;51.578;7.268;2022-09-09T07:58:31;100282.44;;;18.91;100.00
15272;BME280;7737;51.578;7.268;2022-09-09T08:00:57;100277.63;;;19.04;100.00
15272;BME280;7737;51.578;7.268;2022-09-09T08:03:24;100270.44;;;19.14;100.00
15272;BME280;7737;51.578;7.268;2022-09-09T08:05:50;100275.66;;;19.25;100.00
15272;BME280;7737;51.578;7.268;2022-09-09T08:08:17;100273.38;;;19.01;100.00
15272;BME280;7737;51.578;7.268;2022-09-09T08:10:44;100281.44;;;19.01;100.00
15272;BME280;7737;51.578;7.268;2022-09-09T08:13:12;100286.72;;;19.03;100.00
15272;BME280;7737;51.578;7.268;2022-09-09T08:15:39;100283.72;;;18.96;100.00
15272;BME280;7737;51.578;7.268;2022-09-09T08:18:06;100285.56;;;18.96;100.00
15272;BME280;7737;51.578;7.268;2022-09-09T08:20:35;100287.28;;;19.16;100.00
15272;BME280;7737;51.578;7.268;2022-09-09T08:23:02;100275.66;;;19.25;100.00
15272;BME280;7737;51.578;7.268;2022-09-09T08:25:30;100277.97;;;19.39;100.00
15272;BME280;7737;51.578;7.268;2022-09-09T08:27:56;100273.00;;;19.44;100.00
15272;BME280;7737;51.578;7.268;2022-09-09T08:30:24;100270.56;;;19.60;100.00
15272;BME280;7737;51.578;7.268;2022-09-09T08:32:51;100268.56;;;19.62;100.00
15272;BME280;7737;51.578;7.268;2022-09-09T08:35:18;100271.44;;;19.51;100.00
15272;BME280;7737;51.578;7.268;2022-09-09T08:37:45;100273.41;;;19.59;100.00
15272;BME280;7737;51.578;7.268;2022-09-09T08:40:24;100274.41;;;19.48;100.00
15272;BME280;7737;51.578;7.268;2022-09-09T08:42:56;100277.69;;;19.42;100.00
15272;BME280;7737;51.578;7.268;2022-09-09T08:45:37;100275.69;;;19.44;100.00
15272;BME280;7737;51.578;7.268;2022-09-09T08:48:29;100277.34;;;19.35;100.00
15272;BME280;7737;51.578;7.268;2022-09-09T08:51:01;100283.06;;;19.42;100.00
15272;BME280;7737;51.578;7.268;2022-09-09T08:53:30;100285.03;;;19.59;100.00
15272;BME280;7737;51.578;7.268;2022-09-09T08:56:09;100276.56;;;20.00;100.00
15272;BME280;7737;51.578;7.268;2022-09-09T08:58:42;100273.28;;;20.07;100.00
15272;BME280;7737;51.578;7.268;2022-09-09T09:01:21;100272.44;;;19.96;100.00
15272;BME280;7737;51.578;7.268;2022-09-09T09:03:59;100263.38;;;19.97;100.00
15272;BME280;7737;51.578;7.268;2022-09-09T09:06:35;100269.88;;;20.04;100.00
15272;BME280;7737;51.578;7.268;2022-09-09T09:09:10;100259.56;;;20.37;100.00
15272;BME280;7737;51.578;7.268;2022-09-09T09:11:40;100264.16;;;20.17;100.00
15272;BME280;7737;51.578;7.268;2022-09-09T09:14:12;100264.56;;;20.32;100.00
15272;BME280;7737;51.578;7.268;2022-09-09T09:16:49;100265.56;;;20.21;100.00
15272;BME280;7737;51.578;7.268;2022-09-09T09:19:17;100270.72;;;20.15;100.00
15272;BME280;7737;51.578;7.268;2022-09-09T09:21:45;100266.75;;;20.09;100.00
15272;BME280;7737;51.578;7.268;2022-09-09T09:24:18;100261.00;;;20.22;100.00
15272;BME280;7737;51.578;7.268;2022-09-09T09:26:45;100272.16;;;20.46;100.00
15272;BME280;7737;51.578;7.268;2022-09-09T09:29:14;100265.53;;;20.31;100.00
15272;BME280;7737;51.578;7.268;2022-09-09T09:31:45;100262.31;;;20.27;100.00
15272;BME280;7737;51.578;7.268;2022-09-09T09:34:13;100274.41;;;20.14;100.00
15272;BME280;7737;51.578;7.268;2022-09-09T09:36:41;100264.72;;;20.30;100.00
15272;BME280;7737;51.578;7.268;2022-09-09T09:39:10;100267.94;;;20.61;100.00
15272;BME280;7737;51.578;7.268;2022-09-09T09:41:38;100258.59;;;21.00;100.00
15272;BME280;7737;51.578;7.268;2022-09-09T09:44:22;100246.78;;;21.01;100.00
15272;BME280;7737;51.578;7.268;2022-09-09T09:46:51;100253.25;;;20.91;100.00
15272;BME280;7737;51.578;7.268;2022-09-09T09:49:18;100237.06;;;20.91;100.00
15272;BME280;7737;51.578;7.268;2022-09-09T09:51:45;100223.53;;;21.44;100.00
15272;BME280;7737;51.578;7.268;2022-09-09T09:54:17;100235.72;;;21.48;100.00
15272;BME280;7737;51.578;7.268;2022-09-09T09:56:46;100234.13;;;21.02;100.00
15272;BME280;7737;51.578;7.268;2022-09-09T09:59:33;100239.94;;;21.07;100.00
15272;BME280;7737;51.578;7.268;2022-09-09T10:02:15;100222.22;;;20.95;100.00
15272;BME280;7737;51.578;7.268;2022-09-09T10:04:42;100232.91;;;21.14;100.00
15272;BME280;7737;51.578;7.268;2022-09-09T10:07:10;100226.31;;;21.52;100.00
15272;BME280;7737;51.578;7.268;2022-09-09T10:09:37;100244.41;;;21.16;100.00
15272;BME280;7737;51.578;7.268;2022-09-09T10:12:11;100248.56;;;21.10;100.00
15272;BME280;7737;51.578;7.268;2022-09-09T10:14:49;100235.78;;;21.12;100.00
15272;BME280;7737;51.578;7.268;2022-09-09T10:17:29;100243.31;;;21.27;100.00
15272;BME280;7737;51.578;7.268;2022-09-09T10:20:14;100234.91;;;21.12;100.00
15272;BME280;7737;51.578;7.268;2022-09-09T10:22:49;100230.81;;;21.26;100.00
15272;BME280;7737;51.578;7.268;2022-09-09T10:25:34;100230.38;;;21.12;100.00
15272;BME280;7737;51.578;7.268;2022-09-09T10:28:23;100229.34;;;21.31;100.00
15272;BME280;7737;51.578;7.268;2022-09-09T10:31:01;100224.75;;;21.32;100.00
15272;BME280;7737;51.578;7.268;2022-09-09T10:33:43;100211.19;;;21.67;100.00
15272;BME280;7737;51.578;7.268;2022-09-09T10:36:13;100211.13;;;21.59;99.87
15272;BME280;7737;51.578;7.268;2022-09-09T10:38:45;100209.19;;;21.26;99.20
15272;BME280;7737;51.578;7.268;2022-09-09T10:41:18;100204.38;;;21.37;98.20
15272;BME280;7737;51.578;7.268;2022-09-09T10:43:57;100177.59;;;21.52;94.27
15272;BME280;7737;51.578;7.268;2022-09-09T10:46:33;100173.53;;;22.07;93.63
15272;BME280;7737;51.578;7.268;2022-09-09T10:49:18;100175.28;;;22.24;93.35
15272;BME280;7737;51.578;7.268;2022-09-09T10:51:54;100163.63;;;22.24;90.50
15272;BME280;7737;51.578;7.268;2022-09-09T10:54:32;100159.03;;;22.74;89.92
15272;BME280;7737;51.578;7.268;2022-09-09T10:57:05;100159.00;;;22.58;89.25
15272;BME280;7737;51.578;7.268;2022-09-09T10:59:38;100137.19;;;22.84;86.15
15272;BME280;7737;51.578;7.268;2022-09-09T11:02:13;100139.53;;;22.63;85.15
15272;BME280;7737;51.578;7.268;2022-09-09T11:04:45;100139.25;;;22.32;84.46
15272;BME280;7737;51.578;7.268;2022-09-09T11:07:21;100142.94;;;22.15;84.54
15272;BME280;7737;51.578;7.268;2022-09-09T11:09:54;100151.59;;;22.76;85.51
15272;BME280;7737;51.578;7.268;2022-09-09T11:12:25;100153.03;;;22.47;85.09
15272;BME280;7737;51.578;7.268;2022-09-09T11:14:55;100158.13;;;22.50;85.46
15272;BME280;7737;51.578;7.268;2022-09-09T11:17:26;100158.75;;;22.35;85.26
15272;BME280;7737;51.578;7.268;2022-09-09T11:19:56;100139.81;;;21.94;83.43
15272;BME280;7737;51.578;7.268;2022-09-09T11:22:27;100150.09;;;22.32;85.13
15272;BME280;7737;51.578;7.268;2022-09-09T11:24:59;100155.50;;;22.32;84.20
15272;BME280;7737;51.578;7.268;2022-09-09T11:27:30;100151.81;;;22.41;83.68
15272;BME280;7737;51.578;7.268;2022-09-09T11:30:17;100150.56;;;22.19;83.99
15272;BME280;7737;51.578;7.268;2022-09-09T11:33:04;100152.88;;;22.06;83.22
15272;BME280;7737;51.578;7.268;2022-09-09T11:35:47;100152.13;;;21.88;83.93
15272;BME280;7737;51.578;7.268;2022-09-09T11:38:21;100167.06;;;22.00;85.44
15272;BME280;7737;51.578;7.268;2022-09-09T11:40:55;100158.28;;;21.98;84.89
15272;BME280;7737;51.578;7.268;2022-09-09T11:43:27;100161.78;;;21.91;84.85
15272;BME280;7737;51.578;7.268;2022-09-09T11:45:57;100160.34;;;22.04;84.77
15272;BME280;7737;51.578;7.268;2022-09-09T11:48:29;100149.66;;;21.77;84.23
15272;BME280;7737;51.578;7.268;2022-09-09T11:51:00;100141.78;;;22.17;84.09
15272;BME280;7737;51.578;7.268;2022-09-09T11:53:28;100128.00;;;22.61;82.49
15272;BME280;7737;51.578;7.268;2022-09-09T11:56:10;100128.56;;;22.96;82.60
15272;BME280;7737;51.578;7.268;2022-09-09T11:58:41;100119.22;;;22.91;80.88
15272;BME280;7737;51.578;7.268;2022-09-09T12:01:34;100117.81;;;22.55;80.68
15272;BME280;7737;51.578;7.268;2022-09-09T12:04:27;100135.00;;;22.13;82.27
15272;BME280;7737;51.578;7.268;2022-09-09T12:06:59;100132.97;;;22.15;82.65
15272;BME280;7737;51.578;7.268;2022-09-09T12:09:31;100133.81;;;22.16;83.54
15272;BME280;7737;51.578;7.268;2022-09-09T12:12:06;100138.81;;;22.53;83.45
15272;BME280;7737;51.578;7.268;2022-09-09T12:14:37;100135.00;;;22.79;83.18
15272;BME280;7737;51.578;7.268;2022-09-09T12:17:18;100126.81;;;22.55;82.28
15272;BME280;7737;51.578;7.268;2022-09-09T12:19:46;100128.78;;;22.29;81.87
15272;BME280;7737;51.578;7.268;2022-09-09T12:22:19;100141.81;;;22.33;82.55
15272;BME280;7737;51.578;7.268;2022-09-09T12:24:54;100154.28;;;22.10;83.66
15272;BME280;7737;51.578;7.268;2022-09-09T12:27:28;100198.69;;;21.74;89.08
15272;BME280;7737;51.578;7.268;2022-09-09T12:30:03;100215.38;;;21.61;92.05
15272;BME280;7737;51.578;7.268;2022-09-09T12:32:31;100229.22;;;21.15;94.25
15272;BME280;7737;51.578;7.268;2022-09-09T12:35:00;100253.25;;;20.91;100.00
15272;BME280;7737;51.578;7.268;2022-09-09T12:37:33;100260.34;;;20.92;100.00
15272;BME280;7737;51.578;7.268;2022-09-09T12:40:03;100254.91;;;21.19;100.00
15272;BME280;7737;51.578;7.268;2022-09-09T12:42:30;100230.44;;;21.64;100.00
15272;BME280;7737;51.578;7.268;2022-09-09T12:44:59;100229.31;;;21.49;99.43
15272;BME280;7737;51.578;7.268;2022-09-09T12:47:38;100212.63;;;22.05;98.48
15272;BME280;7737;51.578;7.268;2022-09-09T12:50:16;100200.53;;;21.91;97.22
15272;BME280;7737;51.578;7.268;2022-09-09T12:52:45;100205.66;;;21.51;96.12
15272;BME280;7737;51.578;7.268;2022-09-09T12:55:17;100199.56;;;21.49;95.21
15272;BME280;7737;51.578;7.268;2022-09-09T12:57:45;100197.06;;;21.81;94.78
15272;BME280;7737;51.578;7.268;2022-09-09T13:00:15;100209.09;;;21.61;95.00
15272;BME280;7737;51.578;7.268;2022-09-09T13:02:47;100202.31;;;21.57;94.99
15272;BME280;7737;51.578;7.268;2022-09-09T13:05:18;100198.16;;;21.45;95.31
15272;BME280;7737;51.578;7.268;2022-09-09T13:07:47;100192.13;;;22.02;95.56
15272;BME280;7737;51.578;7.268;2022-09-09T13:10:22;100197.75;;;21.83;95.75
15272;BME280;7737;51.578;7.268;2022-09-09T13:12:49;100187.91;;;22.41;94.42